Arctic — VCLM — position and weather

sailwx.info

Track history (hours):
 
Tides and Currents Weather Stations Pressure Air Temp Water Temp Dewpoint Dewpoint Depression Visibility Wind Speed Wind Dir Waves Ship Positions

Arctic

Last reported at 2018-Feb-20 17:00 UTC. Time now 2018-Feb-20 17:59 UTC.
Position N 52°36' W 055°24'.

Length 220.8 m; beam 22.9 m; draft 11.5 m.

Type: Ship (hazmat cat A). MMSI: 316056000.

Wind from 340 at 20 knots

Barometer 1025.9 mb
Air temperature -15.4 ° C
Dewpoint -19.2 ° C
Water temperature -1.5 ° C

Date/timePositionNaut miles runAvg speedWind from/ knotsBaromVisibWave heightAir tempDewpointWater temp
2018-Feb-20 17:00N 52°36' W 055°24'1212.0 340 / 201025.9 -15.4-19.2-1.5
2018-Feb-20 16:00N 52°24' W 055°24'1312.5 340 / 171025.2 -12.9-17.2-1.4
2018-Feb-20 15:00N 52°12' W 055°18'1414.1 330 / 211024.5 -12.3-17.8-1.4
2018-Feb-20 14:00N 52°00' W 055°30'1414.1 350 / 171024.9 -12.1-17.0-1.4
2018-Feb-20 13:00N 51°48' W 055°42'10 9.5 010 / 191022.8 -10.2-14.6-1.5
2018-Feb-20 12:00N 51°42' W 055°54'1312.7 350 / 191020.7 -7.4-11.5-1.0
2018-Feb-20 11:00N 51°36' W 056°12'1312.7 320 / 191020.5 -4.1-8.5-1.1
2018-Feb-20 10:00N 51°30' W 056°30'1312.7 260 / 171020.0 -3.4-5.4-0.9
2018-Feb-20 09:00N 51°24' W 056°48'1616.5 260 / 181019.8 -2.5-4.5-1.0
2018-Feb-20 08:00N 51°12' W 057°06'1312.8 250 / 221019.5 -1.4-3.6-1.2
2018-Feb-20 07:00N 51°06' W 057°24'1716.5 240 / 221019.5 -0.2-3.3-1.2
2018-Feb-20 06:00N 50°54' W 057°42'10 9.7 230 / 261019.9 -0.8-3.5-1.2
2018-Feb-20 05:00N 50°48' W 057°54'1716.6 220 / 241020.6 -0.0-3.4-1.0
2018-Feb-20 04:00N 50°36' W 058°12'1414.2 220 / 181021.0 -0.4-3.6-0.9
2018-Feb-20 03:00N 50°24' W 058°24'1313.0 200 / 211022.4 -1.0-3.6-0.8
2018-Feb-20 02:00N 50°18' W 058°42'1414.2 200 / 211024.1 -1.1-3.9-1.0
2018-Feb-20 01:00N 50°06' W 058°54'1414.3 210 / 201025.1 -1.1-4.1-1.0
2018-Feb-20 00:00N 49°54' W 059°06'1515.5 210 / 191026.0 -1.3-4.0-0.9
2018-Feb-19 23:00N 49°54' W 059°30'1515.5 210 / 211026.3 -2.1-4.5-1.1
2018-Feb-19 22:00N 49°54' W 059°54'1211.6 210 / 231026.1 -2.2-4.9-1.3
2018-Feb-19 21:00N 49°54' W 060°12'1515.5 200 / 231026.2 -2.4-5.6-1.2
2018-Feb-19 20:00N 49°54' W 060°36'1211.6 190 / 201026.4 -2.7-5.5-1.2
2018-Feb-19 19:00N 49°54' W 060°54'1515.5 190 / 191026.8 -2.8-5.7-1.2
2018-Feb-19 18:00N 49°54' W 061°18'1515.5 170 / 151027.1 -2.8-5.0-1.1
2018-Feb-19 17:00N 49°54' W 061°42'8 7.7 170 / 121027.9 -3.5-5.5-1.2
2018-Feb-19 16:00N 49°54' W 061°54'1515.5 180 / 121029.1 -4.0-6.1-1.2
2018-Feb-19 15:00N 49°54' W 062°18'1515.5 200 / 101030.0 -4.1-6.7-1.1
2018-Feb-19 14:00N 49°54' W 062°42'8 7.7 210 / 81030.1 -4.8-7.1-1.2
2018-Feb-19 13:00N 49°54' W 062°54'1515.5 200 / 81030.2 -5.1-7.0-1.3
2018-Feb-19 12:00N 49°54' W 063°18'1515.5 220 / 71029.6 -5.6-7.0-1.3
2018-Feb-19 11:00N 49°54' W 063°42'1313.0 1028.7 -5.7-7.1-1.3
2018-Feb-19 10:00N 50°00' W 064°00'1515.4 320 / 31028.8 -5.3-6.9-1.2
2018-Feb-19 09:00N 50°00' W 064°24'1313.0 270 / 41028.4 -5.0-7.2-1.1
2018-Feb-19 08:00N 49°54' W 064°42'8 7.7 270 / 71028.3 -4.8-7.1-1.1
2018-Feb-19 07:00N 49°54' W 064°54'1716.6 270 / 71027.9 -4.8-6.7-1.1
2018-Feb-19 06:00N 49°48' W 065°18'1313.1 280 / 61026.9 -5.1-6.3-1.2
2018-Feb-19 05:00N 49°42' W 065°36'10 9.8 280 / 71026.7 -5.0-7.0-1.3
2018-Feb-19 04:00N 49°36' W 065°48'1313.1 280 / 131026.3 -3.6-6.4-1.2
2018-Feb-19 03:00N 49°30' W 066°06'1716.7 270 / 161026.1 -2.9-6.9-1.2
2018-Feb-19 02:00N 49°24' W 066°30'1211.7 260 / 131025.1 -2.3-5.8-1.1
2018-Feb-19 01:00N 49°24' W 066°48'1313.2 260 / 121024.2 -1.9-5.6-1.2
2018-Feb-19 00:00N 49°18' W 067°06'1716.8 250 / 121022.9 -1.9-4.4-1.0
2018-Feb-18 23:00N 49°06' W 067°24'1716.8 240 / 161021.6 0.2-3.7-1.1
2018-Feb-18 22:00N 48°54' W 067°42'8 7.9 240 / 191020.5 -0.5-4.2-0.9
2018-Feb-18 21:00N 48°54' W 067°54'1716.9 240 / 181019.9 0.9-4.8-1.0
2018-Feb-18 20:00N 48°48' W 068°18'1716.9 240 / 191018.9 1.0-5.1-0.6
2018-Feb-18 19:00N 48°36' W 068°36'1313.3 240 / 211018.0 0.4-6.1 0.3
2018-Feb-18 18:00N 48°30' W 068°54'1010.0 230 / 161017.4 0.4-6.7-0.1
2018-Feb-18 17:00N 48°24' W 069°06'1313.4 250 / 211017.7 -1.2-7.5-0.2
2018-Feb-18 16:00N 48°18' W 069°24'1414.4 240 / 151017.2 -1.9-8.3 0.6
2018-Feb-18 15:00N 48°06' W 069°36'2019.7 230 / 71016.6 -1.8-7.6 0.3
2018-Feb-18 14:00N 47°48' W 069°48'1717.1 210 / 171016.3 -1.0-5.5-0.2
2018-Feb-18 13:00N 47°36' W 070°06'1414.5 240 / 91015.9 -3.2-5.7-0.1
2018-Feb-18 12:00N 47°24' W 070°18'1010.1 270 / 51015.3 -3.8-5.6-0.1
2018-Feb-18 11:00N 47°18' W 070°30'7 7.3 200 / 101014.7 -3.3-4.4-0.1
2018-Feb-18 10:00N 47°12' W 070°36'1514.5 200 / 81014.8 -3.8-4.9 0.1
2018-Feb-18 09:00N 47°00' W 070°48'7 7.3 250 / 31014.9 -5.1-6.8 0.4
2018-Feb-18 08:00N 46°54' W 070°54'1413.7 230 / 61014.9 -3.7-6.5 0.4
2018-Feb-18 07:00N 46°48' W 071°12'0 0.0 030 / 21015.3 -5.6-10.4
2018-Feb-18 06:00N 46°48' W 071°12'0 0.0 020 / 31015.1 -5.8-11.5
2018-Feb-18 05:00N 46°48' W 071°12'0 0.0 050 / 41015.8 -6.2-12.1
2018-Feb-18 04:00N 46°48' W 071°12'0 0.0 050 / 41016.8 -6.3-12.5
2018-Feb-18 03:00N 46°48' W 071°12'0 0.0 030 / 21017.4 -6.3-12.4
2018-Feb-18 02:00N 46°48' W 071°12'0 0.0 020 / 31018.2 -6.1-12.4
2018-Feb-18 01:00N 46°48' W 071°12'0 0.0 040 / 31019.5 -5.6-12.2
2018-Feb-18 00:00N 46°48' W 071°12'0 0.0 030 / 31020.2 -5.2-12.1
2018-Feb-17 23:00N 46°48' W 071°12'0 0.0 020 / 21021.3 -4.2-13.0
2018-Feb-17 22:00N 46°48' W 071°12'0 0.0 290 / 11022.0 -2.9-12.7
2018-Feb-17 21:00N 46°48' W 071°12'0 0.0 220 / 11023.4 -1.8-12.3
2018-Feb-17 20:00N 46°48' W 071°12'0 0.0 260 / 31024.2 -2.9-12.8
2018-Feb-17 19:00N 46°48' W 071°12'0 0.0 090 / 31024.7 -5.5-12.4
2018-Feb-17 18:00N 46°48' W 071°12'0 0.0 080 / 31025.7 -6.3-12.9
2018-Feb-17 17:00N 46°48' W 071°12'0 0.0 030 / 11026.9 -7.3-13.6
2018-Feb-17 16:00N 46°48' W 071°12'0 0.0 100 / 21027.3 -8.2-14.4
2018-Feb-17 15:00N 46°48' W 071°12'0 0.0 140 / 21027.8 -9.2-14.3
2018-Feb-17 14:00N 46°48' W 071°12'0 0.0 260 / 11028.0 -9.7-16.4
2018-Feb-17 13:00N 46°48' W 071°12'0 0.0 270 / 41027.1 -12.0-17.7
2018-Feb-17 12:00N 46°48' W 071°12'0 0.0 270 / 31026.4 -12.3-17.8
2018-Feb-17 11:00N 46°48' W 071°12'0 0.0 280 / 41025.6 -12.7-17.7
2018-Feb-17 10:00N 46°48' W 071°12'0 0.0 260 / 61025.2 -11.8-17.5
2018-Feb-17 09:00N 46°48' W 071°12'0 0.0 260 / 51024.2 -11.1-16.8
2018-Feb-17 08:00N 46°48' W 071°12'0 0.0 240 / 41023.4 -9.9-16.9
2018-Feb-17 07:00N 46°48' W 071°12'0 0.0 230 / 31022.3 -8.6-16.6
2018-Feb-17 06:00N 46°48' W 071°12'0 0.0 260 / 61021.5 -9.8-16.9
2018-Feb-17 05:00N 46°48' W 071°12'0 0.0 260 / 71020.0 -9.9-17.2 1.2
2018-Feb-17 04:00N 46°48' W 071°12'0 0.0 260 / 71018.5 -9.2-17.1 0.7
2018-Feb-17 03:00N 46°48' W 071°12'0 0.0 270 / 81017.2 -8.6-17.2 1.1
2018-Feb-17 02:00N 46°48' W 071°12'0 0.0 250 / 81015.6 -7.6-16.8
2018-Feb-17 01:00N 46°48' W 071°12'0 0.0 260 / 51013.9 -7.0-16.7
2018-Feb-17 00:00N 46°48' W 071°12'0 0.0 270 / 21012.3 -6.3-15.4
2018-Feb-16 23:00N 46°48' W 071°12'0 0.0 350 / 31010.7 -5.5-16.3
2018-Feb-16 22:00N 46°48' W 071°12'0 0.0 320 / 41008.7 -4.2-14.9
2018-Feb-16 21:00N 46°48' W 071°12'0 0.0 310 / 31007.0 -3.1-12.5
2018-Feb-16 20:00N 46°48' W 071°12'0 0.0 310 / 11005.3 -1.7-10.7
2018-Feb-16 19:00N 46°48' W 071°12'0 0.0 350 / 51003.9 -1.7-7.5
2018-Feb-16 18:00N 46°48' W 071°12'0 0.0 1002.7 -0.5-4.5
2018-Feb-16 17:00N 46°48' W 071°12'0 0.0 060 / 81001.3 0.7-7.3
2018-Feb-16 16:00N 46°48' W 071°12'0 0.0 290 / 31001.6 0.7-7.3
2018-Feb-16 15:00N 46°48' W 071°12'0 0.0 280 / 41000.6 1.5-5.8
2018-Feb-16 14:00N 46°48' W 071°12'0 0.0 310 / 41001.2 2.1-5.1
2018-Feb-16 13:00N 46°48' W 071°12'0 0.0 230 / 41001.0 1.8-3.3
2018-Feb-16 12:00N 46°48' W 071°12'0 0.0 240 / 41000.6 2.1-2.6
2018-Feb-16 11:00N 46°48' W 071°12'0 0.0 240 / 51000.5 2.5-0.8
2018-Feb-16 10:00N 46°48' W 071°12'0 0.0 240 / 41000.0 2.1 0.5
2018-Feb-16 09:00N 46°48' W 071°12'0 0.0 230 / 61000.4 2.7 0.8
2018-Feb-16 08:00N 46°48' W 071°12'0 0.0 240 / 61000.4 2.8 1.1
2018-Feb-16 07:00N 46°48' W 071°12'0 0.0 230 / 8999.8 2.9 1.3
2018-Feb-16 06:00N 46°48' W 071°12'0 0.0 240 / 7999.2 3.2 1.5
2018-Feb-16 05:00N 46°48' W 071°12'0 0.0 240 / 7998.9 3.2 1.6
2018-Feb-16 04:00N 46°48' W 071°12'0 0.0 250 / 10998.9 3.1 1.5
2018-Feb-16 03:00N 46°48' W 071°12'0 0.0 250 / 8998.8 2.9 1.7
2018-Feb-16 02:00N 46°48' W 071°12'0 0.0 240 / 6998.9 2.7 1.6
2018-Feb-16 01:00N 46°48' W 071°12'0 0.0 250 / 8998.9 2.2 1.4
2018-Feb-16 00:00N 46°48' W 071°12'0 0.0 250 / 12998.6 2.3 1.5
2018-Feb-15 23:00N 46°48' W 071°12'0 0.0 230 / 4998.5 1.1 0.6
2018-Feb-15 22:00N 46°48' W 071°12'0 0.0 040 / 1998.2 2.8 1.2
2018-Feb-15 21:00N 46°48' W 071°12'0 0.0 030 / 1999.2 2.8 0.8
2018-Feb-15 20:00N 46°48' W 071°12'0 0.0 1000.6 1.4-0.3
2018-Feb-15 19:00N 46°48' W 071°12'0 0.0 080 / 11001.6 2.4-1.2
2018-Feb-15 18:00N 46°48' W 071°12'0 0.0 020 / 31003.2 2.4-1.3
2018-Feb-15 17:00N 46°48' W 071°12'0 0.0 070 / 11005.5 1.4-1.6
2018-Feb-15 16:00N 46°48' W 071°12'0 0.0 300 / 11006.7 0.6-2.0
2018-Feb-15 15:00N 46°48' W 071°12'0 0.0 230 / 21008.1 -0.0-2.2
2018-Feb-15 14:00N 46°48' W 071°12'0 0.0 190 / 31008.5 -1.3-2.7
2018-Feb-15 13:00N 46°48' W 071°12'0 0.0 250 / 11009.2 -1.6-3.0
2018-Feb-15 12:00N 46°48' W 071°12'0 0.0 230 / 31009.0 -1.8-2.8
2018-Feb-15 11:00N 46°48' W 071°12'0 0.0 260 / 11009.5 -1.8-2.5
2018-Feb-15 10:00N 46°48' W 071°12'0 0.0 210 / 11010.2 -1.8-2.8
2018-Feb-15 09:00N 46°48' W 071°12'0 0.0 230 / 21010.3 -1.4-2.9
2018-Feb-15 08:00N 46°48' W 071°12'0 0.0 1010.8 -1.2-2.9
2018-Feb-15 07:00N 46°48' W 071°12'0 0.0 300 / 11011.6 -0.8-2.5
2018-Feb-15 06:00N 46°48' W 071°12'0 0.0 280 / 71011.5 0.3-2.4
2018-Feb-15 05:00N 46°48' W 071°12'0 0.0 250 / 51011.9 0.7-2.2
2018-Feb-15 04:00N 46°48' W 071°12'0 0.0 240 / 21011.9 -0.2-2.1
2018-Feb-15 03:00N 46°48' W 071°12'0 0.0 160 / 11011.7 -0.0-1.7
2018-Feb-15 02:00N 46°48' W 071°12'0 0.0 1011.8 0.4-1.7
2018-Feb-15 01:00N 46°48' W 071°12'0 0.0 250 / 21011.5 0.7-1.1
2018-Feb-15 00:00N 46°48' W 071°12'0 0.0 230 / 61011.3 2.5-1.7
2018-Feb-14 23:00N 46°48' W 071°12'0 0.0 240 / 101011.5 2.8-2.2
2018-Feb-14 22:00N 46°48' W 071°12'0 0.0 250 / 81012.2 2.5-2.1
2018-Feb-14 21:00N 46°48' W 071°12'0 0.0 240 / 61012.4 1.8-2.6
2018-Feb-14 20:00N 46°48' W 071°12'0 0.0 210 / 31012.9 -1.1-4.2
2018-Feb-14 19:00N 46°48' W 071°12'0 0.0 200 / 61013.9 -2.3-5.8
2018-Feb-14 18:00N 46°48' W 071°12'0 0.0 210 / 101014.9 -3.1-7.1
2018-Feb-14 17:00N 46°48' W 071°12'0 0.0 210 / 71016.6 -3.7-8.2
2018-Feb-14 16:00N 46°48' W 071°12'0 0.0 240 / 61017.6 -5.3-10.5
2018-Feb-14 15:00N 46°48' W 071°12'0 0.0 210 / 91018.8 -7.0-10.9
2018-Feb-14 14:00N 46°48' W 071°12'0 0.0 220 / 41019.4 -8.3-11.5
2018-Feb-14 13:00N 46°48' W 071°12'0 0.0 250 / 31019.9 -9.8-12.4
2018-Feb-14 12:00N 46°48' W 071°12'0 0.0 240 / 31020.4 -10.3-12.8
2018-Feb-14 11:00N 46°48' W 071°12'0 0.0 220 / 31021.3 -9.9-13.7
2018-Feb-14 10:00N 46°48' W 071°12'0 0.0 240 / 21022.3 -10.0-14.0
2018-Feb-14 09:00N 46°48' W 071°12'0 0.0 270 / 21023.3 -10.2-14.2
2018-Feb-14 08:00N 46°48' W 071°12'0 0.0 240 / 21025.2 -9.9-13.8
2018-Feb-14 07:00N 46°48' W 071°12'0 0.0 270 / 31026.5 -9.7-13.5
2018-Feb-14 06:00N 46°48' W 071°12'0 0.0 260 / 31028.2 -9.7-13.8
2018-Feb-14 05:00N 46°48' W 071°12'0 0.0 260 / 21029.6 -7.5-14.0
2018-Feb-14 04:00N 46°48' W 071°12'0 0.0 270 / 31030.6 -8.1-14.7
2018-Feb-14 03:00N 46°48' W 071°12'0 0.0 250 / 41031.7 -7.1-14.5
2018-Feb-14 02:00N 46°48' W 071°12'0 0.0 260 / 31033.2 -7.2-14.3
2018-Feb-14 01:00N 46°48' W 071°12'0 0.0 250 / 51034.3 -7.0-15.0
2018-Feb-14 00:00N 46°48' W 071°12'0 0.0 250 / 71035.6 -6.9-15.2
2018-Feb-13 23:00N 46°48' W 071°12'0 0.0 240 / 81036.0 -6.6-15.2
2018-Feb-13 22:00N 46°48' W 071°12'0 0.0 250 / 41037.1 -6.7-14.9
2018-Feb-13 21:00N 46°48' W 071°12'0 0.0 250 / 51038.0 -7.3-16.2
2018-Feb-13 20:00N 46°48' W 071°12'0 0.0 260 / 51039.1 -7.6-16.6
2018-Feb-13 19:00N 46°48' W 071°12'0 0.0 190 / 21040.0 -6.8-15.7
2018-Feb-13 18:00N 46°48' W 071°12'0 0.0 240 / 51041.4 -8.2-18.3
2018-Feb-13 17:00N 46°48' W 071°12'0 0.0 250 / 71042.5 -10.1-19.5
2018-Feb-13 16:00N 46°48' W 071°12'0 0.0 230 / 41043.2 -9.6-20.3
2018-Feb-13 15:00N 46°48' W 071°12'0 0.0 240 / 41043.5 -10.6-20.7
2018-Feb-13 14:00N 46°48' W 071°12'0 0.0 270 / 71043.6 -13.6-21.0
2018-Feb-13 13:00N 46°48' W 071°12'0 0.0 270 / 61043.2 -14.5-21.0
2018-Feb-13 12:00N 46°48' W 071°12'0 0.0 260 / 81042.4 -15.3-21.6
2018-Feb-13 11:00N 46°48' W 071°12'0 0.0 260 / 51041.5 -14.5-20.9
2018-Feb-13 10:00N 46°48' W 071°12'0 0.0 240 / 31040.7 -11.9-19.1
2018-Feb-13 09:00N 46°48' W 071°12'0 0.0 260 / 31039.7 -12.3-19.3
2018-Feb-13 08:00N 46°48' W 071°12'0 0.0 250 / 81038.9 -12.4-20.4
2018-Feb-13 07:00N 46°48' W 071°12'0 0.0 260 / 81038.2 -12.0-19.0
2018-Feb-13 06:00N 46°48' W 071°12'0 0.0 250 / 61037.6 -10.8-17.3
2018-Feb-13 05:00N 46°48' W 071°12'0 0.0 240 / 71036.6 -10.1-16.6
2018-Feb-13 04:00N 46°48' W 071°12'0 0.0 240 / 71035.7 -9.3-16.3
2018-Feb-13 03:00N 46°48' W 071°12'0 0.0 250 / 91034.5 -8.9-16.0
2018-Feb-13 02:00N 46°48' W 071°12'0 0.0 250 / 71033.6 -8.0-13.9
2018-Feb-13 01:00N 46°48' W 071°12'0 0.0 250 / 31032.1 -6.8-14.2
2018-Feb-13 00:00N 46°48' W 071°12'0 0.0 240 / 31030.6 -5.6-13.4
2018-Feb-12 23:00N 46°48' W 071°12'0 0.0 250 / 51029.2 -5.2-13.0
2018-Feb-12 22:00N 46°48' W 071°12'0 0.0 240 / 41027.4 -4.5-11.2
2018-Feb-12 21:00N 46°48' W 071°12'0 0.0 250 / 61026.2 -3.9-11.4
2018-Feb-12 19:00N 46°48' W 071°12'0 0.0 250 / 91023.9 -4.8-8.3
2018-Feb-12 18:00N 46°48' W 071°12'0 0.0 250 / 111023.5 -4.3-9.9
2018-Feb-12 17:00N 46°48' W 071°12'0 0.0 250 / 131023.0 -4.9-9.9
2018-Feb-12 16:00N 46°48' W 071°12'0 0.0 250 / 131022.5 -5.0-10.5
2018-Feb-12 15:00N 46°48' W 071°12'0 0.0 250 / 121021.6 -5.0-10.4
2018-Feb-12 14:00N 46°48' W 071°12'0 0.0 250 / 131020.7 -4.6-10.1
2018-Feb-12 13:00N 46°48' W 071°12'0 0.0 250 / 101019.2 -4.6-8.7
2018-Feb-12 12:00N 46°48' W 071°12'0 0.0 250 / 111017.2 -3.9-8.3
2018-Feb-12 11:00N 46°48' W 071°12'0 0.0 250 / 141015.6 -3.1-8.4
2018-Feb-12 10:00N 46°48' W 071°12'0 0.0 250 / 141013.0 -1.2-5.3
2018-Feb-12 09:00N 46°48' W 071°12'0 0.0 250 / 141010.1 0.6-2.6
2018-Feb-12 08:00N 46°48' W 071°12'0 0.0 250 / 131008.6 0.9-1.3
2018-Feb-12 07:00N 46°48' W 071°12'0 0.0 240 / 21007.2 0.7-1.0
2018-Feb-12 06:00N 46°48' W 071°12'0 0.0 1005.7 0.6-1.4
2018-Feb-12 05:00N 46°48' W 071°12'0 0.0 1004.8 -1.6-2.2
2018-Feb-12 04:00N 46°48' W 071°12'0 0.0 050 / 21004.0 -2.0-2.7
2018-Feb-12 03:00N 46°48' W 071°12'0 0.0 050 / 41004.4 -2.8-3.6
2018-Feb-12 02:00N 46°48' W 071°12'0 0.0 060 / 101005.5 -3.7-4.8
2018-Feb-12 01:00N 46°48' W 071°12'0 0.0 060 / 131007.0 -4.0-5.2
2018-Feb-12 00:00N 46°48' W 071°12'0 0.0 060 / 201008.4 -5.0-6.6
2018-Feb-11 19:00N 46°48' W 071°12'0 0.0 060 / 171018.6 -5.6-9.5
2018-Feb-11 18:00N 46°48' W 071°12'0 0.0 060 / 171020.6 -5.6-9.3
2018-Feb-11 17:00N 46°48' W 071°12'0 0.0 060 / 171021.8 -5.5-9.4
2018-Feb-11 16:00N 46°48' W 071°12'0 0.0 060 / 181023.2 -5.4-9.5
2018-Feb-11 15:00N 46°48' W 071°12'0 0.0 060 / 141024.1 -5.2-8.6
2018-Feb-11 14:00N 46°48' W 071°12'0 0.0 060 / 171024.2 -5.0-9.2
2018-Feb-11 13:00N 46°48' W 071°12'0 0.0 070 / 131023.9 -5.0-9.3
2018-Feb-11 12:00N 46°48' W 071°12'0 0.0 070 / 141023.5 -4.7-9.1
2018-Feb-11 11:00N 46°48' W 071°12'0 0.0 070 / 81023.0 -4.5-7.0
2018-Feb-11 10:00N 46°48' W 071°12'0 0.0 080 / 121022.5 -4.2-6.0
2018-Feb-11 07:00N 46°48' W 071°12'0 0.0 1021.8 -4.1-6.0
2018-Feb-11 06:00N 46°48' W 071°12'0 0.0 280 / 41021.7 -4.9-6.4
2018-Feb-11 05:00N 46°48' W 071°12'0 0.0 270 / 21021.9 -4.3-5.7
2018-Feb-11 04:00N 46°48' W 071°12'0 0.0 250 / 31021.6 -3.8-5.2
2018-Feb-11 03:00N 46°48' W 071°12'0 0.0 240 / 21021.5 -3.2-4.6
2018-Feb-11 02:00N 46°48' W 071°12'0 0.0 250 / 21021.8 -3.4-4.6
2018-Feb-11 01:00N 46°48' W 071°12'0 0.0 250 / 41021.6 -4.2-5.5
2018-Feb-11 00:00N 46°48' W 071°12'0 0.0 270 / 31021.4 -4.4-5.7
2018-Feb-10 23:00N 46°48' W 071°12'0 0.0 250 / 21021.1 -3.9-5.5
2018-Feb-10 22:00N 46°48' W 071°12'0 0.0 240 / 21020.5 -3.1-5.2
2018-Feb-10 21:00N 46°48' W 071°12'0 0.0 250 / 31020.3 -4.5-6.2
2018-Feb-10 20:00N 46°48' W 071°12'0 0.0 260 / 31020.1 -4.3-7.9
2018-Feb-10 19:00N 46°48' W 071°12'0 0.0 020 / 11020.6 -4.6-7.6
2018-Feb-10 18:00N 46°48' W 071°12'0 0.0 080 / 11021.6 -5.1-8.0
2018-Feb-10 17:00N 46°48' W 071°12'   030 / 21022.1 -6.1-8.6
Track history (hours):
 
Tides and Currents Weather Stations Pressure Air Temp Water Temp Dewpoint Dewpoint Depression Visibility Wind Speed Wind Dir Waves Ship Positions

Arctic

Last reported at 2018-Feb-20 17:00 UTC. Time now 2018-Feb-20 17:59 UTC.
Position N 52°36' W 055°24'.

Length 220.8 m; beam 22.9 m; draft 11.5 m.

Type: Ship (hazmat cat A). MMSI: 316056000.

Wind from 340 at 20 knots

Barometer 1025.9 mb
Air temperature -15.4 ° C
Dewpoint -19.2 ° C
Water temperature -1.5 ° C

Date/timePositionNaut miles runAvg speedWind from/ knotsBaromVisibWave heightAir tempDewpointWater temp
2018-Feb-20 17:00N 52°36' W 055°24'1212.0 340 / 201025.9 -15.4-19.2-1.5
2018-Feb-20 16:00N 52°24' W 055°24'1312.5 340 / 171025.2 -12.9-17.2-1.4
2018-Feb-20 15:00N 52°12' W 055°18'1414.1 330 / 211024.5 -12.3-17.8-1.4
2018-Feb-20 14:00N 52°00' W 055°30'1414.1 350 / 171024.9 -12.1-17.0-1.4
2018-Feb-20 13:00N 51°48' W 055°42'10 9.5 010 / 191022.8 -10.2-14.6-1.5
2018-Feb-20 12:00N 51°42' W 055°54'1312.7 350 / 191020.7 -7.4-11.5-1.0
2018-Feb-20 11:00N 51°36' W 056°12'1312.7 320 / 191020.5 -4.1-8.5-1.1
2018-Feb-20 10:00N 51°30' W 056°30'1312.7 260 / 171020.0 -3.4-5.4-0.9
2018-Feb-20 09:00N 51°24' W 056°48'1616.5 260 / 181019.8 -2.5-4.5-1.0
2018-Feb-20 08:00N 51°12' W 057°06'1312.8 250 / 221019.5 -1.4-3.6-1.2
2018-Feb-20 07:00N 51°06' W 057°24'1716.5 240 / 221019.5 -0.2-3.3-1.2
2018-Feb-20 06:00N 50°54' W 057°42'10 9.7 230 / 261019.9 -0.8-3.5-1.2
2018-Feb-20 05:00N 50°48' W 057°54'1716.6 220 / 241020.6 -0.0-3.4-1.0
2018-Feb-20 04:00N 50°36' W 058°12'1414.2 220 / 181021.0 -0.4-3.6-0.9
2018-Feb-20 03:00N 50°24' W 058°24'1313.0 200 / 211022.4 -1.0-3.6-0.8
2018-Feb-20 02:00N 50°18' W 058°42'1414.2 200 / 211024.1 -1.1-3.9-1.0
2018-Feb-20 01:00N 50°06' W 058°54'1414.3 210 / 201025.1 -1.1-4.1-1.0
2018-Feb-20 00:00N 49°54' W 059°06'1515.5 210 / 191026.0 -1.3-4.0-0.9
2018-Feb-19 23:00N 49°54' W 059°30'1515.5 210 / 211026.3 -2.1-4.5-1.1
2018-Feb-19 22:00N 49°54' W 059°54'1211.6 210 / 231026.1 -2.2-4.9-1.3
2018-Feb-19 21:00N 49°54' W 060°12'1515.5 200 / 231026.2 -2.4-5.6-1.2
2018-Feb-19 20:00N 49°54' W 060°36'1211.6 190 / 201026.4 -2.7-5.5-1.2
2018-Feb-19 19:00N 49°54' W 060°54'1515.5 190 / 191026.8 -2.8-5.7-1.2
2018-Feb-19 18:00N 49°54' W 061°18'1515.5 170 / 151027.1 -2.8-5.0-1.1
2018-Feb-19 17:00N 49°54' W 061°42'8 7.7 170 / 121027.9 -3.5-5.5-1.2
2018-Feb-19 16:00N 49°54' W 061°54'1515.5 180 / 121029.1 -4.0-6.1-1.2
2018-Feb-19 15:00N 49°54' W 062°18'1515.5 200 / 101030.0 -4.1-6.7-1.1
2018-Feb-19 14:00N 49°54' W 062°42'8 7.7 210 / 81030.1 -4.8-7.1-1.2
2018-Feb-19 13:00N 49°54' W 062°54'1515.5 200 / 81030.2 -5.1-7.0-1.3
2018-Feb-19 12:00N 49°54' W 063°18'1515.5 220 / 71029.6 -5.6-7.0-1.3
2018-Feb-19 11:00N 49°54' W 063°42'1313.0 1028.7 -5.7-7.1-1.3
2018-Feb-19 10:00N 50°00' W 064°00'1515.4 320 / 31028.8 -5.3-6.9-1.2
2018-Feb-19 09:00N 50°00' W 064°24'1313.0 270 / 41028.4 -5.0-7.2-1.1
2018-Feb-19 08:00N 49°54' W 064°42'8 7.7 270 / 71028.3 -4.8-7.1-1.1
2018-Feb-19 07:00N 49°54' W 064°54'1716.6 270 / 71027.9 -4.8-6.7-1.1
2018-Feb-19 06:00N 49°48' W 065°18'1313.1 280 / 61026.9 -5.1-6.3-1.2
2018-Feb-19 05:00N 49°42' W 065°36'10 9.8 280 / 71026.7 -5.0-7.0-1.3
2018-Feb-19 04:00N 49°36' W 065°48'1313.1 280 / 131026.3 -3.6-6.4-1.2
2018-Feb-19 03:00N 49°30' W 066°06'1716.7 270 / 161026.1 -2.9-6.9-1.2
2018-Feb-19 02:00N 49°24' W 066°30'1211.7 260 / 131025.1 -2.3-5.8-1.1
2018-Feb-19 01:00N 49°24' W 066°48'1313.2 260 / 121024.2 -1.9-5.6-1.2
2018-Feb-19 00:00N 49°18' W 067°06'1716.8 250 / 121022.9 -1.9-4.4-1.0
2018-Feb-18 23:00N 49°06' W 067°24'1716.8 240 / 161021.6 0.2-3.7-1.1
2018-Feb-18 22:00N 48°54' W 067°42'8 7.9 240 / 191020.5 -0.5-4.2-0.9
2018-Feb-18 21:00N 48°54' W 067°54'1716.9 240 / 181019.9 0.9-4.8-1.0
2018-Feb-18 20:00N 48°48' W 068°18'1716.9 240 / 191018.9 1.0-5.1-0.6
2018-Feb-18 19:00N 48°36' W 068°36'1313.3 240 / 211018.0 0.4-6.1 0.3
2018-Feb-18 18:00N 48°30' W 068°54'1010.0 230 / 161017.4 0.4-6.7-0.1
2018-Feb-18 17:00N 48°24' W 069°06'1313.4 250 / 211017.7 -1.2-7.5-0.2
2018-Feb-18 16:00N 48°18' W 069°24'1414.4 240 / 151017.2 -1.9-8.3 0.6
2018-Feb-18 15:00N 48°06' W 069°36'2019.7 230 / 71016.6 -1.8-7.6 0.3
2018-Feb-18 14:00N 47°48' W 069°48'1717.1 210 / 171016.3 -1.0-5.5-0.2
2018-Feb-18 13:00N 47°36' W 070°06'1414.5 240 / 91015.9 -3.2-5.7-0.1
2018-Feb-18 12:00N 47°24' W 070°18'1010.1 270 / 51015.3 -3.8-5.6-0.1
2018-Feb-18 11:00N 47°18' W 070°30'7 7.3 200 / 101014.7 -3.3-4.4-0.1
2018-Feb-18 10:00N 47°12' W 070°36'1514.5 200 / 81014.8 -3.8-4.9 0.1
2018-Feb-18 09:00N 47°00' W 070°48'7 7.3 250 / 31014.9 -5.1-6.8 0.4
2018-Feb-18 08:00N 46°54' W 070°54'1413.7 230 / 61014.9 -3.7-6.5 0.4
2018-Feb-18 07:00N 46°48' W 071°12'0 0.0 030 / 21015.3 -5.6-10.4
2018-Feb-18 06:00N 46°48' W 071°12'0 0.0 020 / 31015.1 -5.8-11.5
2018-Feb-18 05:00N 46°48' W 071°12'0 0.0 050 / 41015.8 -6.2-12.1
2018-Feb-18 04:00N 46°48' W 071°12'0 0.0 050 / 41016.8 -6.3-12.5
2018-Feb-18 03:00N 46°48' W 071°12'0 0.0 030 / 21017.4 -6.3-12.4
2018-Feb-18 02:00N 46°48' W 071°12'0 0.0 020 / 31018.2 -6.1-12.4
2018-Feb-18 01:00N 46°48' W 071°12'0 0.0 040 / 31019.5 -5.6-12.2
2018-Feb-18 00:00N 46°48' W 071°12'0 0.0 030 / 31020.2 -5.2-12.1
2018-Feb-17 23:00N 46°48' W 071°12'0 0.0 020 / 21021.3 -4.2-13.0
2018-Feb-17 22:00N 46°48' W 071°12'0 0.0 290 / 11022.0 -2.9-12.7
2018-Feb-17 21:00N 46°48' W 071°12'0 0.0 220 / 11023.4 -1.8-12.3
2018-Feb-17 20:00N 46°48' W 071°12'0 0.0 260 / 31024.2 -2.9-12.8
2018-Feb-17 19:00N 46°48' W 071°12'0 0.0 090 / 31024.7 -5.5-12.4
2018-Feb-17 18:00N 46°48' W 071°12'0 0.0 080 / 31025.7 -6.3-12.9
2018-Feb-17 17:00N 46°48' W 071°12'0 0.0 030 / 11026.9 -7.3-13.6
2018-Feb-17 16:00N 46°48' W 071°12'0 0.0 100 / 21027.3 -8.2-14.4
2018-Feb-17 15:00N 46°48' W 071°12'0 0.0 140 / 21027.8 -9.2-14.3
2018-Feb-17 14:00N 46°48' W 071°12'0 0.0 260 / 11028.0 -9.7-16.4
2018-Feb-17 13:00N 46°48' W 071°12'0 0.0 270 / 41027.1 -12.0-17.7
2018-Feb-17 12:00N 46°48' W 071°12'0 0.0 270 / 31026.4 -12.3-17.8
2018-Feb-17 11:00N 46°48' W 071°12'0 0.0 280 / 41025.6 -12.7-17.7
2018-Feb-17 10:00N 46°48' W 071°12'0 0.0 260 / 61025.2 -11.8-17.5
2018-Feb-17 09:00N 46°48' W 071°12'0 0.0 260 / 51024.2 -11.1-16.8
2018-Feb-17 08:00N 46°48' W 071°12'0 0.0 240 / 41023.4 -9.9-16.9
2018-Feb-17 07:00N 46°48' W 071°12'0 0.0 230 / 31022.3 -8.6-16.6
2018-Feb-17 06:00N 46°48' W 071°12'0 0.0 260 / 61021.5 -9.8-16.9
2018-Feb-17 05:00N 46°48' W 071°12'0 0.0 260 / 71020.0 -9.9-17.2 1.2
2018-Feb-17 04:00N 46°48' W 071°12'0 0.0 260 / 71018.5 -9.2-17.1 0.7
2018-Feb-17 03:00N 46°48' W 071°12'0 0.0 270 / 81017.2 -8.6-17.2 1.1
2018-Feb-17 02:00N 46°48' W 071°12'0 0.0 250 / 81015.6 -7.6-16.8
2018-Feb-17 01:00N 46°48' W 071°12'0 0.0 260 / 51013.9 -7.0-16.7
2018-Feb-17 00:00N 46°48' W 071°12'0 0.0 270 / 21012.3 -6.3-15.4
2018-Feb-16 23:00N 46°48' W 071°12'0 0.0 350 / 31010.7 -5.5-16.3
2018-Feb-16 22:00N 46°48' W 071°12'0 0.0 320 / 41008.7 -4.2-14.9
2018-Feb-16 21:00N 46°48' W 071°12'0 0.0 310 / 31007.0 -3.1-12.5
2018-Feb-16 20:00N 46°48' W 071°12'0 0.0 310 / 11005.3 -1.7-10.7
2018-Feb-16 19:00N 46°48' W 071°12'0 0.0 350 / 51003.9 -1.7-7.5
2018-Feb-16 18:00N 46°48' W 071°12'0 0.0 1002.7 -0.5-4.5
2018-Feb-16 17:00N 46°48' W 071°12'0 0.0 060 / 81001.3 0.7-7.3
2018-Feb-16 16:00N 46°48' W 071°12'0 0.0 290 / 31001.6 0.7-7.3
2018-Feb-16 15:00N 46°48' W 071°12'0 0.0 280 / 41000.6 1.5-5.8
2018-Feb-16 14:00N 46°48' W 071°12'0 0.0 310 / 41001.2 2.1-5.1
2018-Feb-16 13:00N 46°48' W 071°12'0 0.0 230 / 41001.0 1.8-3.3
2018-Feb-16 12:00N 46°48' W 071°12'0 0.0 240 / 41000.6 2.1-2.6
2018-Feb-16 11:00N 46°48' W 071°12'0 0.0 240 / 51000.5 2.5-0.8
2018-Feb-16 10:00N 46°48' W 071°12'0 0.0 240 / 41000.0 2.1 0.5
2018-Feb-16 09:00N 46°48' W 071°12'0 0.0 230 / 61000.4 2.7 0.8
2018-Feb-16 08:00N 46°48' W 071°12'0 0.0 240 / 61000.4 2.8 1.1
2018-Feb-16 07:00N 46°48' W 071°12'0 0.0 230 / 8999.8 2.9 1.3
2018-Feb-16 06:00N 46°48' W 071°12'0 0.0 240 / 7999.2 3.2 1.5
2018-Feb-16 05:00N 46°48' W 071°12'0 0.0 240 / 7998.9 3.2 1.6
2018-Feb-16 04:00N 46°48' W 071°12'0 0.0 250 / 10998.9 3.1 1.5
2018-Feb-16 03:00N 46°48' W 071°12'0 0.0 250 / 8998.8 2.9 1.7
2018-Feb-16 02:00N 46°48' W 071°12'0 0.0 240 / 6998.9 2.7 1.6
2018-Feb-16 01:00N 46°48' W 071°12'0 0.0 250 / 8998.9 2.2 1.4
2018-Feb-16 00:00N 46°48' W 071°12'0 0.0 250 / 12998.6 2.3 1.5
2018-Feb-15 23:00N 46°48' W 071°12'0 0.0 230 / 4998.5 1.1 0.6
2018-Feb-15 22:00N 46°48' W 071°12'0 0.0 040 / 1998.2 2.8 1.2
2018-Feb-15 21:00N 46°48' W 071°12'0 0.0 030 / 1999.2 2.8 0.8
2018-Feb-15 20:00N 46°48' W 071°12'0 0.0 1000.6 1.4-0.3
2018-Feb-15 19:00N 46°48' W 071°12'0 0.0 080 / 11001.6 2.4-1.2
2018-Feb-15 18:00N 46°48' W 071°12'0 0.0 020 / 31003.2 2.4-1.3
2018-Feb-15 17:00N 46°48' W 071°12'0 0.0 070 / 11005.5 1.4-1.6
2018-Feb-15 16:00N 46°48' W 071°12'0 0.0 300 / 11006.7 0.6-2.0
2018-Feb-15 15:00N 46°48' W 071°12'0 0.0 230 / 21008.1 -0.0-2.2
2018-Feb-15 14:00N 46°48' W 071°12'0 0.0 190 / 31008.5 -1.3-2.7
2018-Feb-15 13:00N 46°48' W 071°12'0 0.0 250 / 11009.2 -1.6-3.0
2018-Feb-15 12:00N 46°48' W 071°12'0 0.0 230 / 31009.0 -1.8-2.8
2018-Feb-15 11:00N 46°48' W 071°12'0 0.0 260 / 11009.5 -1.8-2.5
2018-Feb-15 10:00N 46°48' W 071°12'0 0.0 210 / 11010.2 -1.8-2.8
2018-Feb-15 09:00N 46°48' W 071°12'0 0.0 230 / 21010.3 -1.4-2.9
2018-Feb-15 08:00N 46°48' W 071°12'0 0.0 1010.8 -1.2-2.9
2018-Feb-15 07:00N 46°48' W 071°12'0 0.0 300 / 11011.6 -0.8-2.5
2018-Feb-15 06:00N 46°48' W 071°12'0 0.0 280 / 71011.5 0.3-2.4
2018-Feb-15 05:00N 46°48' W 071°12'0 0.0 250 / 51011.9 0.7-2.2
2018-Feb-15 04:00N 46°48' W 071°12'0 0.0 240 / 21011.9 -0.2-2.1
2018-Feb-15 03:00N 46°48' W 071°12'0 0.0 160 / 11011.7 -0.0-1.7
2018-Feb-15 02:00N 46°48' W 071°12'0 0.0 1011.8 0.4-1.7
2018-Feb-15 01:00N 46°48' W 071°12'0 0.0 250 / 21011.5 0.7-1.1
2018-Feb-15 00:00N 46°48' W 071°12'0 0.0 230 / 61011.3 2.5-1.7
2018-Feb-14 23:00N 46°48' W 071°12'0 0.0 240 / 101011.5 2.8-2.2
2018-Feb-14 22:00N 46°48' W 071°12'0 0.0 250 / 81012.2 2.5-2.1
2018-Feb-14 21:00N 46°48' W 071°12'0 0.0 240 / 61012.4 1.8-2.6
2018-Feb-14 20:00N 46°48' W 071°12'0 0.0 210 / 31012.9 -1.1-4.2
2018-Feb-14 19:00N 46°48' W 071°12'0 0.0 200 / 61013.9 -2.3-5.8
2018-Feb-14 18:00N 46°48' W 071°12'0 0.0 210 / 101014.9 -3.1-7.1
2018-Feb-14 17:00N 46°48' W 071°12'0 0.0 210 / 71016.6 -3.7-8.2
2018-Feb-14 16:00N 46°48' W 071°12'0 0.0 240 / 61017.6 -5.3-10.5
2018-Feb-14 15:00N 46°48' W 071°12'0 0.0 210 / 91018.8 -7.0-10.9
2018-Feb-14 14:00N 46°48' W 071°12'0 0.0 220 / 41019.4 -8.3-11.5
2018-Feb-14 13:00N 46°48' W 071°12'0 0.0 250 / 31019.9 -9.8-12.4
2018-Feb-14 12:00N 46°48' W 071°12'0 0.0 240 / 31020.4 -10.3-12.8
2018-Feb-14 11:00N 46°48' W 071°12'0 0.0 220 / 31021.3 -9.9-13.7
2018-Feb-14 10:00N 46°48' W 071°12'0 0.0 240 / 21022.3 -10.0-14.0
2018-Feb-14 09:00N 46°48' W 071°12'0 0.0 270 / 21023.3 -10.2-14.2
2018-Feb-14 08:00N 46°48' W 071°12'0 0.0 240 / 21025.2 -9.9-13.8
2018-Feb-14 07:00N 46°48' W 071°12'0 0.0 270 / 31026.5 -9.7-13.5
2018-Feb-14 06:00N 46°48' W 071°12'0 0.0 260 / 31028.2 -9.7-13.8
2018-Feb-14 05:00N 46°48' W 071°12'0 0.0 260 / 21029.6 -7.5-14.0
2018-Feb-14 04:00N 46°48' W 071°12'0 0.0 270 / 31030.6 -8.1-14.7
2018-Feb-14 03:00N 46°48' W 071°12'0 0.0 250 / 41031.7 -7.1-14.5
2018-Feb-14 02:00N 46°48' W 071°12'0 0.0 260 / 31033.2 -7.2-14.3
2018-Feb-14 01:00N 46°48' W 071°12'0 0.0 250 / 51034.3 -7.0-15.0
2018-Feb-14 00:00N 46°48' W 071°12'0 0.0 250 / 71035.6 -6.9-15.2
2018-Feb-13 23:00N 46°48' W 071°12'0 0.0 240 / 81036.0 -6.6-15.2
2018-Feb-13 22:00N 46°48' W 071°12'0 0.0 250 / 41037.1 -6.7-14.9
2018-Feb-13 21:00N 46°48' W 071°12'0 0.0 250 / 51038.0 -7.3-16.2
2018-Feb-13 20:00N 46°48' W 071°12'0 0.0 260 / 51039.1 -7.6-16.6
2018-Feb-13 19:00N 46°48' W 071°12'0 0.0 190 / 21040.0 -6.8-15.7
2018-Feb-13 18:00N 46°48' W 071°12'0 0.0 240 / 51041.4 -8.2-18.3
2018-Feb-13 17:00N 46°48' W 071°12'0 0.0 250 / 71042.5 -10.1-19.5
2018-Feb-13 16:00N 46°48' W 071°12'0 0.0 230 / 41043.2 -9.6-20.3
2018-Feb-13 15:00N 46°48' W 071°12'0 0.0 240 / 41043.5 -10.6-20.7
2018-Feb-13 14:00N 46°48' W 071°12'0 0.0 270 / 71043.6 -13.6-21.0
2018-Feb-13 13:00N 46°48' W 071°12'0 0.0 270 / 61043.2 -14.5-21.0
2018-Feb-13 12:00N 46°48' W 071°12'0 0.0 260 / 81042.4 -15.3-21.6
2018-Feb-13 11:00N 46°48' W 071°12'0 0.0 260 / 51041.5 -14.5-20.9
2018-Feb-13 10:00N 46°48' W 071°12'0 0.0 240 / 31040.7 -11.9-19.1
2018-Feb-13 09:00N 46°48' W 071°12'0 0.0 260 / 31039.7 -12.3-19.3
2018-Feb-13 08:00N 46°48' W 071°12'0 0.0 250 / 81038.9 -12.4-20.4
2018-Feb-13 07:00N 46°48' W 071°12'0 0.0 260 / 81038.2 -12.0-19.0
2018-Feb-13 06:00N 46°48' W 071°12'0 0.0 250 / 61037.6 -10.8-17.3
2018-Feb-13 05:00N 46°48' W 071°12'0 0.0 240 / 71036.6 -10.1-16.6
2018-Feb-13 04:00N 46°48' W 071°12'0 0.0 240 / 71035.7 -9.3-16.3
2018-Feb-13 03:00N 46°48' W 071°12'0 0.0 250 / 91034.5 -8.9-16.0
2018-Feb-13 02:00N 46°48' W 071°12'0 0.0 250 / 71033.6 -8.0-13.9
2018-Feb-13 01:00N 46°48' W 071°12'0 0.0 250 / 31032.1 -6.8-14.2
2018-Feb-13 00:00N 46°48' W 071°12'0 0.0 240 / 31030.6 -5.6-13.4
2018-Feb-12 23:00N 46°48' W 071°12'0 0.0 250 / 51029.2 -5.2-13.0
2018-Feb-12 22:00N 46°48' W 071°12'0 0.0 240 / 41027.4 -4.5-11.2
2018-Feb-12 21:00N 46°48' W 071°12'0 0.0 250 / 61026.2 -3.9-11.4
2018-Feb-12 19:00N 46°48' W 071°12'0 0.0 250 / 91023.9 -4.8-8.3
2018-Feb-12 18:00N 46°48' W 071°12'0 0.0 250 / 111023.5 -4.3-9.9
2018-Feb-12 17:00N 46°48' W 071°12'0 0.0 250 / 131023.0 -4.9-9.9
2018-Feb-12 16:00N 46°48' W 071°12'0 0.0 250 / 131022.5 -5.0-10.5
2018-Feb-12 15:00N 46°48' W 071°12'0 0.0 250 / 121021.6 -5.0-10.4
2018-Feb-12 14:00N 46°48' W 071°12'0 0.0 250 / 131020.7 -4.6-10.1
2018-Feb-12 13:00N 46°48' W 071°12'0 0.0 250 / 101019.2 -4.6-8.7
2018-Feb-12 12:00N 46°48' W 071°12'0 0.0 250 / 111017.2 -3.9-8.3
2018-Feb-12 11:00N 46°48' W 071°12'0 0.0 250 / 141015.6 -3.1-8.4
2018-Feb-12 10:00N 46°48' W 071°12'0 0.0 250 / 141013.0 -1.2-5.3
2018-Feb-12 09:00N 46°48' W 071°12'0 0.0 250 / 141010.1 0.6-2.6
2018-Feb-12 08:00N 46°48' W 071°12'0 0.0 250 / 131008.6 0.9-1.3
2018-Feb-12 07:00N 46°48' W 071°12'0 0.0 240 / 21007.2 0.7-1.0
2018-Feb-12 06:00N 46°48' W 071°12'0 0.0 1005.7 0.6-1.4
2018-Feb-12 05:00N 46°48' W 071°12'0 0.0 1004.8 -1.6-2.2
2018-Feb-12 04:00N 46°48' W 071°12'0 0.0 050 / 21004.0 -2.0-2.7
2018-Feb-12 03:00N 46°48' W 071°12'0 0.0 050 / 41004.4 -2.8-3.6
2018-Feb-12 02:00N 46°48' W 071°12'0 0.0 060 / 101005.5 -3.7-4.8
2018-Feb-12 01:00N 46°48' W 071°12'0 0.0 060 / 131007.0 -4.0-5.2
2018-Feb-12 00:00N 46°48' W 071°12'0 0.0 060 / 201008.4 -5.0-6.6
2018-Feb-11 19:00N 46°48' W 071°12'0 0.0 060 / 171018.6 -5.6-9.5
2018-Feb-11 18:00N 46°48' W 071°12'0 0.0 060 / 171020.6 -5.6-9.3
2018-Feb-11 17:00N 46°48' W 071°12'0 0.0 060 / 171021.8 -5.5-9.4
2018-Feb-11 16:00N 46°48' W 071°12'0 0.0 060 / 181023.2 -5.4-9.5
2018-Feb-11 15:00N 46°48' W 071°12'0 0.0 060 / 141024.1 -5.2-8.6
2018-Feb-11 14:00N 46°48' W 071°12'0 0.0 060 / 171024.2 -5.0-9.2
2018-Feb-11 13:00N 46°48' W 071°12'0 0.0 070 / 131023.9 -5.0-9.3
2018-Feb-11 12:00N 46°48' W 071°12'0 0.0 070 / 141023.5 -4.7-9.1
2018-Feb-11 11:00N 46°48' W 071°12'0 0.0 070 / 81023.0 -4.5-7.0
2018-Feb-11 10:00N 46°48' W 071°12'0 0.0 080 / 121022.5 -4.2-6.0
2018-Feb-11 07:00N 46°48' W 071°12'0 0.0 1021.8 -4.1-6.0
2018-Feb-11 06:00N 46°48' W 071°12'0 0.0 280 / 41021.7 -4.9-6.4
2018-Feb-11 05:00N 46°48' W 071°12'0 0.0 270 / 21021.9 -4.3-5.7
2018-Feb-11 04:00N 46°48' W 071°12'0 0.0 250 / 31021.6 -3.8-5.2
2018-Feb-11 03:00N 46°48' W 071°12'0 0.0 240 / 21021.5 -3.2-4.6
2018-Feb-11 02:00N 46°48' W 071°12'0 0.0 250 / 21021.8 -3.4-4.6
2018-Feb-11 01:00N 46°48' W 071°12'0 0.0 250 / 41021.6 -4.2-5.5
2018-Feb-11 00:00N 46°48' W 071°12'0 0.0 270 / 31021.4 -4.4-5.7
2018-Feb-10 23:00N 46°48' W 071°12'0 0.0 250 / 21021.1 -3.9-5.5
2018-Feb-10 22:00N 46°48' W 071°12'0 0.0 240 / 21020.5 -3.1-5.2
2018-Feb-10 21:00N 46°48' W 071°12'0 0.0 250 / 31020.3 -4.5-6.2
2018-Feb-10 20:00N 46°48' W 071°12'0 0.0 260 / 31020.1 -4.3-7.9
2018-Feb-10 19:00N 46°48' W 071°12'0 0.0 020 / 11020.6 -4.6-7.6
2018-Feb-10 18:00N 46°48' W 071°12'0 0.0 080 / 11021.6 -5.1-8.0
2018-Feb-10 17:00N 46°48' W 071°12'   030 / 21022.1 -6.1-8.6

Dump ship's entire track history